createdAt,value
2023-04-25T00:00:18.503Z,13.91
2023-04-25T00:02:45.191Z,13.67
2023-04-25T00:05:12.513Z,13.99
2023-04-25T00:07:39.527Z,13.97
2023-04-25T00:10:07.319Z,13.96
2023-04-25T00:15:10.586Z,13.90
2023-04-25T00:17:39.330Z,13.80
2023-04-25T00:20:08.837Z,14.14
2023-04-25T00:23:06.332Z,13.93
2023-04-25T00:25:57.796Z,13.77
2023-04-25T00:28:33.553Z,13.87
2023-04-25T00:31:00.643Z,13.17
2023-04-25T00:33:27.352Z,13.24
2023-04-25T00:35:54.127Z,13.53
2023-04-25T00:38:22.693Z,13.63
2023-04-25T00:40:49.362Z,13.59
2023-04-25T00:43:33.402Z,13.49
2023-04-25T00:46:02.091Z,13.40
2023-04-25T00:48:29.124Z,13.46
2023-04-25T00:50:58.776Z,13.42
2023-04-25T00:54:02.971Z,13.20
2023-04-25T00:56:48.213Z,13.38
2023-04-25T00:59:16.210Z,13.16
2023-04-25T01:01:45.176Z,13.41
2023-04-25T01:04:12.257Z,13.20
2023-04-25T01:06:39.420Z,13.35
2023-04-25T01:09:06.403Z,13.34
2023-04-25T01:14:08.348Z,13.21
2023-04-25T01:16:35.227Z,13.49
2023-04-25T01:19:02.476Z,13.52
2023-04-25T01:25:11.958Z,13.35
2023-04-25T01:27:45.000Z,13.14
2023-04-25T01:30:11.645Z,12.71
2023-04-25T01:32:41.708Z,13.11
2023-04-25T01:35:10.836Z,13.18
2023-04-25T01:37:42.260Z,13.24
2023-04-25T01:40:11.574Z,13.11
2023-04-25T01:42:42.099Z,12.82
2023-04-25T01:45:09.527Z,13.00
2023-04-25T01:47:36.363Z,12.82
2023-04-25T01:50:04.943Z,13.04
2023-04-25T01:52:44.060Z,13.01
2023-04-25T01:55:25.834Z,13.08
2023-04-25T01:57:52.509Z,13.35
2023-04-25T02:00:19.561Z,13.06
2023-04-25T02:02:46.241Z,12.90
2023-04-25T02:05:15.602Z,13.27
2023-04-25T02:07:42.219Z,13.01
2023-04-25T02:12:44.046Z,12.60
2023-04-25T02:15:11.710Z,12.93
2023-04-25T02:17:53.788Z,12.90
2023-04-25T02:20:24.244Z,12.92
2023-04-25T02:22:51.039Z,13.12
2023-04-25T02:29:23.290Z,13.11
2023-04-25T02:31:56.910Z,13.30
2023-04-25T02:34:23.624Z,12.65
2023-04-25T02:36:53.309Z,13.06
2023-04-25T02:39:20.095Z,12.91
2023-04-25T02:41:46.699Z,13.16
2023-04-25T02:44:14.061Z,12.95
2023-04-25T02:46:40.696Z,13.15
2023-04-25T02:49:07.793Z,12.47
2023-04-25T02:51:34.468Z,12.84
2023-04-25T02:54:01.054Z,13.07
2023-04-25T02:56:28.037Z,12.99
2023-04-25T02:58:54.768Z,13.13
2023-04-25T03:01:49.542Z,12.85
2023-04-25T03:04:32.046Z,12.55
2023-04-25T03:06:58.621Z,12.85
2023-04-25T03:09:25.397Z,12.87
2023-04-25T03:11:51.990Z,12.88
2023-04-25T03:14:18.723Z,12.71
2023-04-25T03:16:46.139Z,12.51
2023-04-25T03:19:12.878Z,12.54
2023-04-25T03:21:39.548Z,12.73
2023-04-25T03:24:06.400Z,12.67
2023-04-25T03:26:33.034Z,12.46
2023-04-25T03:28:59.605Z,12.37
2023-04-25T03:31:26.269Z,12.22
2023-04-25T03:33:53.133Z,12.54
2023-04-25T03:36:19.944Z,12.48
2023-04-25T03:38:46.647Z,12.34
2023-04-25T03:41:13.449Z,12.61
2023-04-25T03:43:40.043Z,12.34
2023-04-25T03:46:06.692Z,12.35
2023-04-25T03:48:33.335Z,12.24
2023-04-25T03:51:00.039Z,12.41
2023-04-25T03:53:26.682Z,12.38
2023-04-25T03:55:53.277Z,12.56
2023-04-25T03:58:19.878Z,12.37
2023-04-25T04:01:08.506Z,12.51
2023-04-25T04:03:37.481Z,12.41
2023-04-25T04:06:29.739Z,12.10
2023-04-25T04:09:21.479Z,11.84
2023-04-25T04:11:48.146Z,11.96
2023-04-25T04:14:14.803Z,12.03
2023-04-25T04:16:41.456Z,11.85
2023-04-25T04:19:08.566Z,11.98
2023-04-25T04:21:35.204Z,12.02
2023-04-25T04:24:01.798Z,11.70
2023-04-25T04:26:34.605Z,11.71
2023-04-25T04:29:01.315Z,11.58
2023-04-25T04:31:27.961Z,11.33
2023-04-25T04:33:54.565Z,11.38
2023-04-25T04:39:35.554Z,11.66
2023-04-25T04:42:06.023Z,11.59
2023-04-25T04:44:36.483Z,11.37
2023-04-25T04:47:07.215Z,11.28
2023-04-25T04:49:34.310Z,11.44
2023-04-25T04:52:01.979Z,11.15
2023-04-25T04:54:31.599Z,11.44
2023-04-25T04:56:58.179Z,11.45
2023-04-25T04:59:24.829Z,11.63
2023-04-25T05:01:51.479Z,11.19
2023-04-25T05:04:18.188Z,11.12
2023-04-25T05:06:48.183Z,11.15
2023-04-25T05:09:16.156Z,10.50
2023-04-25T05:11:42.720Z,11.02
2023-04-25T05:14:09.330Z,10.86
2023-04-25T05:16:36.280Z,10.61
2023-04-25T05:19:02.939Z,10.52
2023-04-25T05:21:29.746Z,10.69
2023-04-25T05:23:56.770Z,10.26
2023-04-25T05:26:23.384Z,10.61
2023-04-25T05:28:51.969Z,10.52
2023-04-25T05:31:18.611Z,10.61
2023-04-25T05:33:45.256Z,10.47
2023-04-25T05:36:11.824Z,10.24
2023-04-25T05:38:38.375Z,10.67
2023-04-25T05:41:05.099Z,10.57
2023-04-25T05:43:31.781Z,10.64
2023-04-25T05:45:58.405Z,10.22
2023-04-25T05:48:25.072Z,10.53
2023-04-25T05:50:52.594Z,10.42
2023-04-25T05:53:20.597Z,10.04
2023-04-25T05:55:47.843Z,10.21
2023-04-25T05:58:14.511Z,10.19
2023-04-25T06:00:42.713Z,10.17
2023-04-25T06:03:10.956Z,10.40
2023-04-25T06:05:37.901Z,10.39
2023-04-25T06:08:04.628Z,10.34
2023-04-25T06:10:46.348Z,10.54
2023-04-25T06:13:25.015Z,10.50
2023-04-25T06:15:56.570Z,10.60
2023-04-25T06:18:23.196Z,10.86
2023-04-25T06:20:52.050Z,10.67
2023-04-25T06:25:53.869Z,10.96
2023-04-25T06:30:55.816Z,11.29
2023-04-25T06:33:23.192Z,11.38
2023-04-25T06:35:55.871Z,11.24
2023-04-25T06:38:22.487Z,11.19
2023-04-25T06:40:49.078Z,11.01
2023-04-25T06:43:15.667Z,11.15
2023-04-25T06:46:14.049Z,11.35
2023-04-25T06:48:53.746Z,11.22
2023-04-25T06:51:21.722Z,11.39
2023-04-25T06:53:50.211Z,11.51
2023-04-25T06:56:17.180Z,11.52
2023-04-25T06:58:43.692Z,12.03
2023-04-25T07:01:10.275Z,12.08
2023-04-25T07:03:38.639Z,11.73
2023-04-25T07:06:05.655Z,11.93
2023-04-25T07:08:32.280Z,12.23
2023-04-25T07:10:59.225Z,12.06
2023-04-25T07:13:25.822Z,12.28
2023-04-25T07:15:52.379Z,12.47
2023-04-25T07:18:18.873Z,12.47
2023-04-25T07:20:45.602Z,12.59
2023-04-25T07:23:12.163Z,12.82
2023-04-25T07:25:38.877Z,12.28
2023-04-25T07:28:05.805Z,12.69
2023-04-25T07:30:32.565Z,12.63
2023-04-25T07:32:59.222Z,12.74
2023-04-25T07:35:25.837Z,12.89
2023-04-25T07:37:52.661Z,13.05
2023-04-25T07:40:19.368Z,12.81
2023-04-25T07:42:46.133Z,13.02
2023-04-25T07:45:12.956Z,12.92
2023-04-25T07:47:39.804Z,13.03
2023-04-25T07:50:07.036Z,12.76
2023-04-25T07:52:33.591Z,12.86
2023-04-25T07:55:00.167Z,13.19
2023-04-25T07:57:26.834Z,13.04
2023-04-25T07:59:53.481Z,13.41
2023-04-25T08:02:20.028Z,13.67
2023-04-25T08:04:47.513Z,13.82
2023-04-25T08:07:14.333Z,13.55
2023-04-25T08:09:40.968Z,13.44
2023-04-25T08:12:07.593Z,13.78
2023-04-25T08:14:37.043Z,13.83
2023-04-25T08:17:04.845Z,14.03
2023-04-25T08:19:31.838Z,13.48
2023-04-25T08:21:58.499Z,13.77
2023-04-25T08:24:25.034Z,14.02
2023-04-25T08:26:52.728Z,14.30
2023-04-25T08:29:19.310Z,13.87
2023-04-25T08:31:49.119Z,14.08
2023-04-25T08:34:16.292Z,14.42
2023-04-25T08:36:42.822Z,14.32
2023-04-25T08:39:09.995Z,14.57
2023-04-25T08:41:38.522Z,14.63
2023-04-25T08:44:06.464Z,14.74
2023-04-25T08:46:33.660Z,14.44
2023-04-25T08:49:03.181Z,14.70
2023-04-25T08:51:32.815Z,14.41
2023-04-25T08:54:23.348Z,14.24
2023-04-25T08:56:59.122Z,14.45
2023-04-25T08:59:26.576Z,14.69
2023-04-25T09:01:53.283Z,15.12
2023-04-25T09:04:22.584Z,14.84
2023-04-25T09:06:49.647Z,15.28
2023-04-25T09:09:16.808Z,14.79
2023-04-25T09:11:43.464Z,15.00
2023-04-25T09:14:26.155Z,15.20
2023-04-25T09:17:01.247Z,15.57
2023-04-25T09:22:05.416Z,15.56
2023-04-25T09:24:38.429Z,15.37
2023-04-25T09:27:06.654Z,15.29
2023-04-25T09:29:35.038Z,15.43
2023-04-25T09:32:22.602Z,15.37
2023-04-25T09:34:58.893Z,15.57
2023-04-25T09:37:28.084Z,15.57
2023-04-25T09:40:06.351Z,15.46
2023-04-25T09:42:35.509Z,15.33
2023-04-25T09:48:54.931Z,15.61
2023-04-25T09:51:26.938Z,15.88
2023-04-25T09:53:53.683Z,15.77
2023-04-25T09:56:21.204Z,15.49
2023-04-25T09:58:48.598Z,15.55
2023-04-25T10:01:17.495Z,15.53
2023-04-25T10:03:45.915Z,15.85
2023-04-25T10:06:24.016Z,15.74
2023-04-25T10:08:54.604Z,15.98
2023-04-25T10:11:24.075Z,15.97
2023-04-25T10:13:51.895Z,15.85
2023-04-25T10:16:18.976Z,16.02
2023-04-25T10:18:45.591Z,15.50
2023-04-25T10:21:13.697Z,15.55
2023-04-25T10:23:41.624Z,15.55
2023-04-25T10:26:13.609Z,15.57
2023-04-25T10:29:01.931Z,15.34
2023-04-25T10:31:28.694Z,15.38
2023-04-25T10:33:55.696Z,15.81
2023-04-25T10:36:24.267Z,16.05
2023-04-25T10:38:52.142Z,16.14
2023-04-25T10:41:20.739Z,16.06
2023-04-25T10:43:49.318Z,16.25
2023-04-25T10:46:26.829Z,15.77
2023-04-25T10:48:54.740Z,15.78
2023-04-25T10:51:24.135Z,15.87
2023-04-25T10:53:56.792Z,15.97
2023-04-25T10:56:26.812Z,16.18
2023-04-25T10:59:05.151Z,16.10
2023-04-25T11:01:39.520Z,15.94
2023-04-25T11:04:07.002Z,15.97
2023-04-25T11:07:09.303Z,16.47
2023-04-25T11:09:38.946Z,16.44
2023-04-25T11:12:08.127Z,16.41
2023-04-25T11:14:34.914Z,16.34
2023-04-25T11:17:02.990Z,16.37
2023-04-25T11:19:30.524Z,16.68
2023-04-25T11:21:58.390Z,16.02
2023-04-25T11:24:35.720Z,16.31
2023-04-25T11:27:03.660Z,16.32
2023-04-25T11:29:31.805Z,16.47
2023-04-25T11:31:59.382Z,16.72
2023-04-25T11:34:27.164Z,16.82
2023-04-25T11:36:54.504Z,17.16
2023-04-25T11:39:22.423Z,16.95
2023-04-25T11:41:49.051Z,17.19
2023-04-25T11:44:19.694Z,16.96
2023-04-25T11:46:47.252Z,16.70
2023-04-25T11:49:19.367Z,16.51
2023-04-25T11:51:48.615Z,16.32
2023-04-25T11:54:16.494Z,16.45
2023-04-25T11:56:44.428Z,16.11
2023-04-25T11:59:35.002Z,16.32
2023-04-25T12:02:47.993Z,16.44
2023-04-25T12:05:31.282Z,16.44
2023-04-25T12:07:59.140Z,16.62
2023-04-25T12:10:27.090Z,16.81
2023-04-25T12:12:55.166Z,16.88
2023-04-25T12:15:26.222Z,16.79
2023-04-25T12:20:34.705Z,16.95
2023-04-25T12:23:01.428Z,16.92
2023-04-25T12:25:39.163Z,16.86
2023-04-25T12:28:15.569Z,16.99
2023-04-25T12:31:00.769Z,17.11
2023-04-25T12:33:49.841Z,17.06
2023-04-25T12:36:40.855Z,17.42
2023-04-25T12:39:24.558Z,16.86
2023-04-25T12:41:54.917Z,17.11
2023-04-25T12:44:22.188Z,17.44
2023-04-25T12:46:49.851Z,17.45
2023-04-25T12:49:26.930Z,17.28
2023-04-25T12:51:53.544Z,17.01
2023-04-25T12:54:20.720Z,17.13
2023-04-25T12:56:47.391Z,17.01
2023-04-25T12:59:14.016Z,17.14
2023-04-25T13:01:40.707Z,16.95
2023-04-25T13:04:07.807Z,16.96
2023-04-25T13:06:37.174Z,17.04
2023-04-25T13:09:04.488Z,17.09
2023-04-25T13:11:31.800Z,16.99
2023-04-25T13:13:58.622Z,17.01
2023-04-25T13:16:25.236Z,16.69
2023-04-25T13:18:52.019Z,16.74
2023-04-25T13:21:18.888Z,16.94
2023-04-25T13:23:47.538Z,16.94
2023-04-25T13:26:14.181Z,16.77
2023-04-25T13:28:42.959Z,16.69
2023-04-25T13:31:11.404Z,16.69
2023-04-25T13:33:37.986Z,16.87
2023-04-25T13:36:04.955Z,16.86
2023-04-25T13:38:31.615Z,17.05
2023-04-25T13:40:58.364Z,17.05
2023-04-25T13:43:24.923Z,16.99
2023-04-25T13:45:51.660Z,16.91
2023-04-25T13:48:19.632Z,17.27
2023-04-25T13:50:46.631Z,17.36
2023-04-25T13:53:13.851Z,17.64
2023-04-25T13:55:40.677Z,17.55
2023-04-25T13:58:11.021Z,17.49
2023-04-25T14:00:40.112Z,17.38
2023-04-25T14:03:22.262Z,16.99
2023-04-25T14:05:50.916Z,16.61
2023-04-25T14:08:17.492Z,16.65
2023-04-25T14:10:44.038Z,16.77
2023-04-25T14:13:29.158Z,16.81
2023-04-25T14:16:16.024Z,17.00
2023-04-25T14:19:04.616Z,17.27
2023-04-25T14:21:33.441Z,17.09
2023-04-25T14:24:00.036Z,17.01
2023-04-25T14:26:26.626Z,16.84
2023-04-25T14:28:53.660Z,16.67
2023-04-25T14:31:20.210Z,16.76
2023-04-25T14:33:47.109Z,17.01
2023-04-25T14:36:13.749Z,16.66
2023-04-25T14:38:40.603Z,17.19
2023-04-25T14:41:07.226Z,17.16
2023-04-25T14:43:33.913Z,16.64
2023-04-25T14:46:00.514Z,16.68
2023-04-25T14:51:02.468Z,16.45
2023-04-25T14:53:29.837Z,16.20
2023-04-25T14:55:56.491Z,16.45
2023-04-25T14:58:23.829Z,16.29
2023-04-25T15:00:50.631Z,16.41
2023-04-25T15:03:42.655Z,16.70
2023-04-25T15:06:37.372Z,16.81
2023-04-25T15:11:39.758Z,16.38
2023-04-25T15:14:06.689Z,16.23
2023-04-25T15:16:33.323Z,16.26
2023-04-25T15:18:59.941Z,16.08
2023-04-25T15:21:27.505Z,16.20
2023-04-25T15:26:29.624Z,16.23
2023-04-25T15:28:56.301Z,16.11
2023-04-25T15:31:23.302Z,16.06
2023-04-25T15:37:27.124Z,16.11
2023-04-25T15:40:10.700Z,16.31
2023-04-25T15:42:38.241Z,16.00
2023-04-25T15:45:09.162Z,16.05
2023-04-25T15:47:36.922Z,16.02
2023-04-25T15:50:08.398Z,16.13
2023-04-25T15:52:36.504Z,16.32
2023-04-25T15:55:07.797Z,16.19
2023-04-25T15:57:35.506Z,15.90
2023-04-25T16:00:13.270Z,15.58
2023-04-25T16:02:40.958Z,15.46
2023-04-25T16:05:09.018Z,15.74
2023-04-25T16:07:36.317Z,15.75
2023-04-25T16:10:03.126Z,16.02
2023-04-25T16:12:31.161Z,16.06
2023-04-25T16:14:58.273Z,15.93
2023-04-25T16:17:25.753Z,15.58
2023-04-25T16:19:52.327Z,15.76
2023-04-25T16:22:19.134Z,15.94
2023-04-25T16:24:45.690Z,16.01
2023-04-25T16:27:12.380Z,15.86
2023-04-25T16:29:39.315Z,16.09
2023-04-25T16:32:06.243Z,15.81
2023-04-25T16:34:32.919Z,15.69
2023-04-25T16:36:59.816Z,15.55
2023-04-25T16:39:26.403Z,15.74
2023-04-25T16:41:53.324Z,15.63
2023-04-25T16:44:19.917Z,15.45
2023-04-25T16:46:46.548Z,15.39
2023-04-25T16:49:13.147Z,15.43
2023-04-25T16:51:39.754Z,15.43
2023-04-25T16:54:06.468Z,15.77
2023-04-25T16:56:36.219Z,15.55
2023-04-25T16:59:02.846Z,15.69
2023-04-25T17:01:29.912Z,15.67
2023-04-25T17:03:56.959Z,15.61
2023-04-25T17:06:23.661Z,15.43
2023-04-25T17:08:51.092Z,15.75
2023-04-25T17:11:18.832Z,15.63
2023-04-25T17:13:46.205Z,15.60
2023-04-25T17:16:16.490Z,15.63
2023-04-25T17:18:44.115Z,15.77
2023-04-25T17:21:10.881Z,15.67
2023-04-25T17:23:37.683Z,15.85
2023-04-25T17:26:04.263Z,15.72
2023-04-25T17:28:31.058Z,15.55
2023-04-25T17:30:58.979Z,15.80
2023-04-25T17:33:27.131Z,15.92
2023-04-25T17:35:54.367Z,15.77
2023-04-25T17:38:21.162Z,15.84
2023-04-25T17:40:47.964Z,15.94
2023-04-25T17:43:14.534Z,15.65
2023-04-25T17:45:41.326Z,15.57
2023-04-25T17:48:08.504Z,15.54
2023-04-25T17:50:35.345Z,15.39
2023-04-25T17:53:05.592Z,14.92
2023-04-25T17:55:32.187Z,15.12
2023-04-25T17:57:58.766Z,14.96
2023-04-25T18:00:25.645Z,14.80
2023-04-25T18:02:52.730Z,14.96
2023-04-25T18:05:19.636Z,15.05
2023-04-25T18:07:46.283Z,15.10
2023-04-25T18:10:14.795Z,15.12
2023-04-25T18:12:41.573Z,15.00
2023-04-25T18:15:09.293Z,15.00
2023-04-25T18:17:40.335Z,14.80
2023-04-25T18:20:14.915Z,14.56
2023-04-25T18:22:43.202Z,14.74
2023-04-25T18:25:13.911Z,14.54
2023-04-25T18:27:41.723Z,14.44
2023-04-25T18:30:10.867Z,14.20
2023-04-25T18:32:38.513Z,14.09
2023-04-25T18:35:10.204Z,14.31
2023-04-25T18:37:41.618Z,14.27
2023-04-25T18:40:12.887Z,14.06
2023-04-25T18:42:39.964Z,13.98
2023-04-25T18:45:07.196Z,14.19
2023-04-25T18:47:33.816Z,13.89
2023-04-25T18:50:03.164Z,13.64
2023-04-25T18:52:29.732Z,13.54
2023-04-25T18:54:56.775Z,13.19
2023-04-25T18:57:23.560Z,13.40
2023-04-25T18:59:50.115Z,13.26
2023-04-25T19:02:18.073Z,13.33
2023-04-25T19:04:44.796Z,13.35
2023-04-25T19:07:11.418Z,13.61
2023-04-25T19:09:38.028Z,13.50
2023-04-25T19:12:05.052Z,13.38
2023-04-25T19:14:33.110Z,13.38
2023-04-25T19:17:00.117Z,13.29
2023-04-25T19:19:27.510Z,13.47
2023-04-25T19:21:54.258Z,13.61
2023-04-25T19:24:21.060Z,13.61
2023-04-25T19:26:47.650Z,13.56
2023-04-25T19:29:15.285Z,13.74
2023-04-25T19:31:44.538Z,13.62
2023-04-25T19:34:11.431Z,13.65
2023-04-25T19:36:39.767Z,13.63
2023-04-25T19:39:07.476Z,13.47
2023-04-25T19:41:36.598Z,13.46
2023-04-25T19:44:08.457Z,13.58
2023-04-25T19:46:36.809Z,13.72
2023-04-25T19:49:07.228Z,13.55
2023-04-25T19:51:34.652Z,13.73
2023-04-25T19:54:01.365Z,13.84
2023-04-25T19:56:28.284Z,13.76
2023-04-25T19:58:56.252Z,13.82
2023-04-25T20:01:23.041Z,13.94
2023-04-25T20:03:53.045Z,14.02
2023-04-25T20:06:19.908Z,14.01
2023-04-25T20:08:47.250Z,13.93
2023-04-25T20:11:14.029Z,13.80
2023-04-25T20:13:40.748Z,13.82
2023-04-25T20:16:07.799Z,13.82
2023-04-25T20:18:34.934Z,13.48
2023-04-25T20:21:02.156Z,13.57
2023-04-25T20:23:28.958Z,13.65
2023-04-25T20:25:55.938Z,13.54
2023-04-25T20:28:23.245Z,13.52
2023-04-25T20:30:50.721Z,13.49
2023-04-25T20:33:17.356Z,13.27
2023-04-25T20:35:44.122Z,13.25
2023-04-25T20:39:00.982Z,13.35
2023-04-25T20:41:48.199Z,13.19
2023-04-25T20:44:14.961Z,12.96
2023-04-25T20:46:41.548Z,12.81
2023-04-25T20:49:08.153Z,12.70
2023-04-25T20:51:35.375Z,12.53
2023-04-25T20:54:05.120Z,12.48
2023-04-25T20:56:51.277Z,12.71
2023-04-25T20:59:18.226Z,12.47
2023-04-25T21:01:45.163Z,12.35
2023-04-25T21:04:11.912Z,12.27
2023-04-25T21:06:53.820Z,12.61
2023-04-25T21:12:52.019Z,12.38
2023-04-25T21:15:21.502Z,11.87
2023-04-25T21:17:49.982Z,11.97
2023-04-25T21:20:18.656Z,12.02
2023-04-25T21:22:50.978Z,12.12
2023-04-25T21:25:24.141Z,12.30
2023-04-25T21:28:09.805Z,12.26
2023-04-25T21:30:36.389Z,12.16
2023-04-25T21:33:03.742Z,12.12
2023-04-25T21:35:30.539Z,11.89
2023-04-25T21:38:15.655Z,12.19
2023-04-25T21:40:56.480Z,12.15
2023-04-25T21:43:23.040Z,12.20
2023-04-25T21:46:14.808Z,12.31
2023-04-25T21:48:36.185Z,12.23
2023-04-25T21:51:02.778Z,12.07
2023-04-25T21:53:29.368Z,12.04
2023-04-25T21:58:31.196Z,11.73
2023-04-25T22:00:59.457Z,11.72
2023-04-25T22:03:26.224Z,11.55
2023-04-25T22:06:03.902Z,11.67
2023-04-25T22:09:21.535Z,11.49
2023-04-25T22:12:04.079Z,11.36
2023-04-25T22:14:31.658Z,11.31
2023-04-25T22:16:58.543Z,11.44
2023-04-25T22:19:25.099Z,11.25
2023-04-25T22:21:58.404Z,11.34
2023-04-25T22:24:29.603Z,11.41
2023-04-25T22:27:11.011Z,11.20
2023-04-25T22:29:37.574Z,11.20
2023-04-25T22:32:04.308Z,11.19
2023-04-25T22:34:30.969Z,11.25
2023-04-25T22:37:22.359Z,11.23
2023-04-25T22:40:07.122Z,11.29
2023-04-25T22:42:38.593Z,11.30
2023-04-25T22:45:06.570Z,11.34
2023-04-25T22:47:33.601Z,11.26
2023-04-25T22:52:35.618Z,11.40
2023-04-25T22:55:03.301Z,11.08
2023-04-25T22:57:30.395Z,11.29
2023-04-25T22:59:59.824Z,11.32
2023-04-25T23:02:27.623Z,11.20
2023-04-25T23:10:32.010Z,11.05
2023-04-25T23:13:00.905Z,11.06
2023-04-25T23:15:31.545Z,11.49
2023-04-25T23:17:58.592Z,11.52
2023-04-25T23:20:25.294Z,11.59
2023-04-25T23:22:51.890Z,11.50
2023-04-25T23:25:26.699Z,11.39
2023-04-25T23:31:17.220Z,11.48
2023-04-25T23:33:43.991Z,11.49
2023-04-25T23:36:19.938Z,11.16
2023-04-25T23:38:46.815Z,11.10
2023-04-25T23:41:13.653Z,11.11
2023-04-25T23:43:40.213Z,11.02
2023-04-25T23:46:07.263Z,11.10
2023-04-25T23:48:33.857Z,11.24
2023-04-25T23:51:01.007Z,11.07
2023-04-25T23:53:27.569Z,10.93
2023-04-25T23:55:54.593Z,10.90
2023-04-25T23:58:21.180Z,10.76
